Time;durP1;ratioP1;P1;durP2;ratioP2;P2;SDS_P1;SDS_P2;PMS_P1;PMS_P2;Temp;Humidity;BMP_temperature;BMP_pressure;BME280_temperature;BME280_humidity;BME280_pressure;Samples;Min_cycle;Max_cycle;Signal;HPM_P1;HPM_P2
2022/10/23 00:02:04;;;;;;;11.88;3.67;;;;;;;29.83;91.55;97595.81;6279168;22;20008;-96
2022/10/23 00:04:30;;;;;;;10.47;4.23;;;;;;;29.70;91.15;97601.69;6250185;22;20004;-96
2022/10/23 00:06:55;;;;;;;12.18;4.18;;;;;;;31.36;85.70;97596.09;6249828;22;20323;-96
2022/10/23 00:09:23;;;;;;;11.85;4.53;;;;;;;31.45;86.06;97595.03;6252853;22;20066;-96
2022/10/23 00:11:50;;;;;;;15.02;4.05;;;;;;;31.54;84.15;97595.00;6253440;22;20711;-96
2022/10/23 00:14:18;;;;;;;12.65;4.10;;;;;;;30.63;88.00;97600.63;6257649;22;20076;-96
2022/10/23 00:16:44;;;;;;;9.98;4.07;;;;;;;28.98;95.68;97591.28;6254402;22;19999;-96
2022/10/23 00:19:21;;;;;;;16.17;4.07;;;;;;;30.77;89.04;97580.25;6252960;22;20011;-96
2022/10/23 00:21:47;;;;;;;9.15;3.78;;;;;;;30.39;90.13;97582.63;6255698;22;20341;-96
2022/10/23 00:24:12;;;;;;;12.40;4.43;;;;;;;30.43;89.89;97583.97;6252495;22;20007;-96
2022/10/23 00:26:39;;;;;;;15.50;4.40;;;;;;;28.69;95.17;97587.09;6256625;22;20073;-96
2022/10/23 00:29:05;;;;;;;13.85;4.07;;;;;;;29.03;95.74;97583.59;6250487;22;20516;-96
2022/10/23 00:31:32;;;;;;;11.63;3.65;;;;;;;28.93;95.81;97584.53;6250864;22;20080;-96
2022/10/23 00:33:57;;;;;;;10.68;3.53;;;;;;;28.82;96.81;97587.50;6250209;22;20011;-96
2022/10/23 00:36:23;;;;;;;9.65;3.08;;;;;;;27.22;100.00;97588.97;6250340;22;20623;-96
2022/10/23 00:38:50;;;;;;;12.07;3.78;;;;;;;28.26;99.68;97582.38;6250113;22;20003;-96
2022/10/23 00:41:26;;;;;;;11.68;3.55;;;;;;;28.05;100.00;97569.31;6250637;22;20475;-96
2022/10/23 00:44:01;;;;;;;12.32;3.95;;;;;;;29.67;94.70;97570.59;6250257;22;20079;-96
2022/10/23 00:46:27;;;;;;;11.85;3.50;;;;;;;30.22;90.72;97568.38;6278453;22;20075;-96
2022/10/23 00:48:59;;;;;;;8.80;3.40;;;;;;;29.76;94.32;97574.16;6249771;22;20307;-96
2022/10/23 00:51:28;;;;;;;11.43;3.28;;;;;;;30.61;88.83;97557.75;6276304;22;19999;-96
2022/10/23 00:53:58;;;;;;;9.80;3.15;;;;;;;30.08;90.09;97559.94;6248136;22;20046;-96
2022/10/23 00:56:25;;;;;;;11.40;2.92;;;;;;;30.24;87.79;97552.88;6248810;22;20019;-94
2022/10/23 00:58:50;;;;;;;10.07;3.17;;;;;;;29.60;92.48;97562.38;6248756;22;20004;-96
2022/10/23 01:01:18;;;;;;;8.20;2.90;;;;;;;29.57;91.35;97557.31;6249355;22;20134;-96
2022/10/23 01:03:44;;;;;;;9.30;3.63;;;;;;;28.80;96.36;97546.59;6247168;22;20042;-96
2022/10/23 01:06:36;;;;;;;12.95;4.30;;;;;;;28.76;99.18;97562.16;6248578;22;20000;-96
2022/10/23 01:09:11;;;;;;;12.27;3.78;;;;;;;29.11;97.16;97554.94;6248830;22;20003;-96
2022/10/23 01:11:54;;;;;;;12.68;4.53;;;;;;;31.30;89.74;97561.78;6248217;22;20008;-96
2022/10/23 01:14:45;;;;;;;12.68;5.50;;;;;;;28.49;100.00;97549.72;6247585;22;20480;-96
2022/10/23 01:17:39;;;;;;;16.45;6.97;;;;;;;29.63;95.93;97539.69;6253844;22;20003;-96
2022/10/23 01:20:43;;;;;;;14.90;6.65;;;;;;;29.29;97.09;97541.44;6250479;22;20095;-96
2022/10/23 01:23:22;;;;;;;15.82;6.20;;;;;;;28.02;100.00;97528.59;6254871;22;20078;-96
2022/10/23 01:26:25;;;;;;;15.30;6.38;;;;;;;30.06;93.60;97534.22;6252982;22;20007;-96
2022/10/23 01:29:27;;;;;;;16.98;6.10;;;;;;;28.41;97.36;97531.72;6252734;22;20015;-96
2022/10/23 01:32:20;;;;;;;13.80;5.90;;;;;;;31.44;89.07;97515.25;6252461;22;20014;-96
2022/10/23 01:34:51;;;;;;;15.90;5.37;;;;;;;30.25;91.38;97512.38;6251375;22;20003;-96
2022/10/23 01:37:26;;;;;;;12.05;5.00;;;;;;;30.99;89.88;97498.75;6252979;22;20015;-96
2022/10/23 01:39:57;;;;;;;13.00;5.32;;;;;;;29.70;95.50;97500.44;6251079;22;20058;-96
2022/10/23 01:42:32;;;;;;;13.65;5.57;;;;;;;29.09;97.58;97499.75;6251991;22;20009;-96
2022/10/23 01:45:33;;;;;;;13.52;4.90;;;;;;;29.82;94.68;97489.34;6253607;22;20025;-96
2022/10/23 01:48:01;;;;;;;12.30;4.95;;;;;;;30.76;91.35;97492.44;6252830;22;20072;-96
2022/10/23 01:50:29;;;;;;;14.10;5.07;;;;;;;30.46;91.48;97474.19;6251146;22;20072;-96
2022/10/23 01:52:54;;;;;;;11.75;5.28;;;;;;;31.11;88.64;97490.34;6251983;22;20008;-96
2022/10/23 01:55:22;;;;;;;13.05;5.80;;;;;;;30.51;90.53;97471.00;6254355;22;20080;-96
2022/10/23 01:57:49;;;;;;;12.68;5.65;;;;;;;30.88;88.78;97472.22;6254155;22;20007;-96
2022/10/23 02:03:03;;;;;;;13.00;5.57;;;;;;;31.57;86.73;97473.41;6258071;22;20024;-96
2022/10/23 02:05:30;;;;;;;15.50;5.80;;;;;;;30.15;91.84;97492.91;6229631;23;20016;-96
2022/10/23 02:08:06;;;;;;;14.45;5.72;;;;;;;29.42;91.66;97491.81;6230253;23;20046;-96
2022/10/23 02:10:57;;;;;;;14.77;5.90;;;;;;;28.88;97.24;97473.31;6231376;23;20000;-96
2022/10/23 02:13:52;;;;;;;13.23;6.25;;;;;;;29.42;95.79;97479.22;6230009;23;20004;-96
2022/10/23 02:16:46;;;;;;;16.63;6.60;;;;;;;29.52;93.93;97487.13;6229675;23;20000;-96
2022/10/23 02:19:22;;;;;;;14.35;5.75;;;;;;;29.36;94.14;97471.00;6225442;23;20118;-96
2022/10/23 02:21:55;;;;;;;15.45;5.45;;;;;;;29.03;95.78;97470.84;6256267;23;20010;-96
2022/10/23 02:25:05;;;;;;;13.35;5.00;;;;;;;30.02;93.21;97473.75;6228907;23;20004;-96
2022/10/23 02:27:39;;;;;;;17.08;5.65;;;;;;;29.95;94.56;97457.44;6234583;23;20026;-96
2022/10/23 02:30:08;;;;;;;13.38;5.88;;;;;;;30.67;90.55;97458.53;6266790;23;20008;-96
2022/10/23 02:32:40;;;;;;;15.35;5.47;;;;;;;32.31;85.63;97456.66;6236896;23;20283;-96
2022/10/23 02:35:07;;;;;;;13.32;5.93;;;;;;;32.42;81.93;97453.47;6261582;23;20007;-96
2022/10/23 02:37:33;;;;;;;15.07;5.13;;;;;;;31.14;86.78;97458.50;6237433;23;20032;-96
2022/10/23 02:39:59;;;;;;;12.95;5.22;;;;;;;32.29;83.58;97459.53;6236241;23;20015;-96
2022/10/23 02:42:34;;;;;;;15.50;5.85;;;;;;;33.51;79.53;97454.66;6237192;23;20023;-96
2022/10/23 02:45:18;;;;;;;14.27;5.50;;;;;;;33.10;80.01;97450.66;6236807;23;20060;-96
2022/10/23 02:47:49;;;;;;;15.77;5.20;;;;;;;32.14;82.23;97462.19;6237730;23;19988;-96
2022/10/23 02:50:53;;;;;;;16.58;6.30;;;;;;;31.63;85.21;97462.75;6236275;23;20027;-96
2022/10/23 02:54:02;;;;;;;15.23;6.00;;;;;;;31.61;84.98;97440.56;6240701;23;20016;-96
2022/10/23 02:57:02;;;;;;;16.73;6.90;;;;;;;33.02;81.04;97439.97;6118035;23;20056;-96
2022/10/23 02:59:44;;;;;;;13.60;6.28;;;;;;;32.27;82.24;97423.78;6118490;23;20141;-96
2022/10/23 03:02:26;;;;;;;18.40;6.75;;;;;;;30.58;85.67;97426.25;6120003;23;20014;-96
2022/10/23 03:05:06;;;;;;;17.02;7.65;;;;;;;32.00;83.64;97430.63;6120451;23;20022;-96
2022/10/23 03:07:36;;;;;;;20.30;8.13;;;;;;;30.09;89.54;97431.72;6115818;23;20052;-96
2022/10/23 03:10:05;;;;;;;19.95;8.30;;;;;;;28.94;95.09;97413.66;6096098;23;20010;-96
2022/10/23 03:12:33;;;;;;;17.83;8.23;;;;;;;30.44;93.24;97433.19;6116647;23;20017;-96
2022/10/23 03:15:00;;;;;;;18.95;8.60;;;;;;;29.53;91.85;97421.63;6118390;23;20010;-96
2022/10/23 03:17:27;;;;;;;22.48;9.48;;;;;;;29.84;92.69;97422.81;6119179;23;20026;-96
2022/10/23 03:19:52;;;;;;;18.52;8.43;;;;;;;28.61;97.69;97414.34;6143304;23;20085;-96
2022/10/23 03:22:20;;;;;;;22.63;9.15;;;;;;;28.04;100.00;97403.31;6116084;23;20014;-96
2022/10/23 03:24:59;;;;;;;17.40;8.27;;;;;;;29.01;97.45;97405.78;6143811;23;20201;-96
2022/10/23 03:27:25;;;;;;;19.73;8.52;;;;;;;27.87;100.00;97388.94;6119699;23;20062;-96
2022/10/23 03:29:51;;;;;;;21.73;8.80;;;;;;;29.38;95.23;97400.00;6173070;23;20005;-96
2022/10/23 03:32:18;;;;;;;21.00;8.25;;;;;;;29.96;92.13;97392.75;6211632;23;20032;-96
2022/10/23 03:34:44;;;;;;;18.95;7.78;;;;;;;29.80;93.27;97398.16;6207209;23;19980;-96
2022/10/23 03:37:18;;;;;;;20.15;8.05;;;;;;;31.01;88.80;97401.66;6237911;23;20041;-96
2022/10/23 03:39:49;;;;;;;20.85;6.43;;;;;;;29.95;89.57;97401.84;6204714;23;20020;-96
2022/10/23 03:42:17;;;;;;;17.83;7.35;;;;;;;29.90;93.26;97380.00;6231923;23;20028;-96
2022/10/23 03:44:46;;;;;;;17.95;6.13;;;;;;;29.72;92.98;97373.97;6206949;23;19996;-96
2022/10/23 03:47:12;;;;;;;17.65;6.70;;;;;;;30.55;89.40;97364.72;6205773;23;20008;-96
2022/10/23 03:49:51;;;;;;;17.52;6.40;;;;;;;31.60;85.69;97374.19;6209389;23;20092;-96
2022/10/23 03:52:20;;;;;;;16.05;6.13;;;;;;;29.31;93.42;97360.53;6202514;23;20004;-96
2022/10/23 03:54:46;;;;;;;16.58;6.47;;;;;;;29.01;94.25;97365.53;6209722;23;20008;-96
2022/10/23 03:57:26;;;;;;;18.63;6.28;;;;;;;29.64;91.61;97374.81;6210616;23;20064;-96
2022/10/23 03:59:54;;;;;;;16.15;6.00;;;;;;;29.47;94.12;97368.59;6207823;23;20047;-96
2022/10/23 04:02:19;;;;;;;16.00;6.07;;;;;;;29.71;92.58;97361.53;6226033;23;20020;-96
2022/10/23 04:04:49;;;;;;;16.52;6.20;;;;;;;29.88;92.14;97357.88;6240583;23;20101;-96
2022/10/23 04:07:16;;;;;;;20.58;6.38;;;;;;;29.55;93.63;97359.69;6215324;23;20008;-96
2022/10/23 04:09:58;;;;;;;17.60;6.95;;;;;;;29.54;93.54;97372.28;6236199;23;20423;-96
2022/10/23 04:12:29;;;;;;;17.58;6.00;;;;;;;30.83;88.67;97371.47;6238753;23;20004;-96
2022/10/23 04:15:14;;;;;;;13.70;5.55;;;;;;;29.57;91.88;97377.31;6239659;23;20016;-96
2022/10/23 04:17:42;;;;;;;20.17;6.50;;;;;;;29.86;91.59;97361.72;6236621;23;20004;-96
2022/10/23 04:20:09;;;;;;;19.15;6.75;;;;;;;30.86;88.93;97360.38;6237140;23;20000;-96
2022/10/23 04:22:36;;;;;;;18.65;7.05;;;;;;;30.80;88.33;97365.44;6240280;23;20010;-96
2022/10/23 04:25:03;;;;;;;18.20;6.80;;;;;;;30.23;90.83;97354.88;6240516;23;20482;-96
2022/10/23 04:27:36;;;;;;;20.08;7.05;;;;;;;30.33;91.19;97357.38;6238596;23;20012;-96
2022/10/23 04:30:03;;;;;;;19.58;6.65;;;;;;;30.68;87.92;97339.94;6241342;23;20008;-96
2022/10/23 04:32:33;;;;;;;17.30;6.78;;;;;;;31.22;86.31;97335.56;6215292;23;20458;-96
2022/10/23 04:35:10;;;;;;;16.67;7.43;;;;;;;29.84;91.56;97350.25;6238988;23;20012;-96
2022/10/23 04:37:36;;;;;;;23.30;7.28;;;;;;;29.04;95.55;97324.91;6239017;23;20159;-96
2022/10/23 04:40:04;;;;;;;18.55;6.95;;;;;;;29.33;96.93;97311.03;6267270;23;20048;-96
2022/10/23 04:42:30;;;;;;;21.08;7.10;;;;;;;31.28;88.82;97314.13;6219710;23;20003;-96
2022/10/23 04:44:56;;;;;;;21.00;7.93;;;;;;;31.10;88.25;97306.38;6241783;23;19984;-96
2022/10/23 04:47:58;;;;;;;21.80;6.93;;;;;;;31.13;87.98;97308.69;6214711;23;20015;-96
2022/10/23 04:50:24;;;;;;;20.20;7.25;;;;;;;31.55;86.25;97295.72;6240426;23;20084;-96
2022/10/23 04:52:54;;;;;;;19.80;7.00;;;;;;;31.54;85.87;97299.44;6241540;23;20011;-96
2022/10/23 04:55:26;;;;;;;20.92;7.15;;;;;;;31.94;85.20;97297.38;6241530;23;19996;-96
2022/10/23 04:57:52;;;;;;;18.38;7.50;;;;;;;31.81;84.69;97281.00;6238069;23;19991;-96
2022/10/23 05:00:18;;;;;;;23.05;8.18;;;;;;;30.21;89.63;97290.53;6239393;23;20000;-96
2022/10/23 05:02:52;;;;;;;23.98;7.53;;;;;;;31.22;86.07;97290.63;6238138;23;20016;-96
2022/10/23 05:05:31;;;;;;;20.67;8.50;;;;;;;33.18;81.36;97271.41;6240284;23;20489;-96
2022/10/23 05:07:59;;;;;;;32.70;9.07;;;;;;;31.93;82.70;97271.44;6236350;23;20040;-96
2022/10/23 05:10:28;;;;;;;21.83;8.40;;;;;;;33.57;78.94;97271.94;6241554;23;20003;-96
2022/10/23 05:13:07;;;;;;;25.35;7.95;;;;;;;31.56;83.68;97269.63;6236913;23;20071;-96
2022/10/23 05:15:32;;;;;;;23.60;8.88;;;;;;;33.16;79.97;97259.97;6228292;22;20016;-94
2022/10/23 05:18:10;;;;;;;30.33;8.85;;;;;;;34.49;75.32;97267.28;6216977;23;20430;-92
2022/10/23 05:20:38;;;;;;;24.02;8.57;;;;;;;33.77;71.85;97272.13;6217086;23;20020;-92
2022/10/23 05:23:10;;;;;;;26.80;8.43;;;;;;;33.27;77.57;97255.94;6242233;23;20012;-94
2022/10/23 05:25:42;;;;;;;57.55;10.00;;;;;;;31.65;83.37;97244.31;6242541;23;20497;-92
2022/10/23 05:28:07;;;;;;;121.63;13.25;;;;;;;31.48;82.91;97233.66;6217532;23;20058;-95
2022/10/23 05:30:45;;;;;;;88.13;13.93;;;;;;;33.13;79.33;97238.75;6217134;23;20142;-96
2022/10/23 05:33:11;;;;;;;79.28;11.13;;;;;;;33.65;77.08;97229.38;6217935;23;20000;-96
2022/10/23 05:35:37;;;;;;;44.25;10.60;;;;;;;31.75;82.40;97219.75;6216517;23;20442;-96
2022/10/23 05:38:05;;;;;;;33.00;9.40;;;;;;;31.53;84.28;97222.31;6217059;23;20099;-95
2022/10/23 05:40:32;;;;;;;90.93;12.15;;;;;;;31.67;83.98;97212.59;6242313;23;20012;-96
2022/10/23 05:42:58;;;;;;;114.85;14.95;;;;;;;32.81;80.60;97200.47;6241572;23;20018;-96
2022/10/23 05:45:32;;;;;;;92.43;12.52;;;;;;;32.00;82.93;97198.72;6215933;23;20086;-96
2022/10/23 05:47:58;;;;;;;47.50;9.98;;;;;;;31.65;84.85;97193.91;6214349;23;20012;-96
2022/10/23 05:50:23;;;;;;;37.17;9.73;;;;;;;32.09;82.72;97202.16;6215879;23;20060;-96
2022/10/23 05:52:49;;;;;;;44.70;10.82;;;;;;;31.01;88.52;97212.34;6216807;23;20417;-95
2022/10/23 05:55:15;;;;;;;41.45;9.95;;;;;;;29.88;89.41;97228.84;6242416;23;20016;-96
2022/10/23 05:57:43;;;;;;;146.65;15.02;;;;;;;28.56;97.06;97236.97;6216675;23;20016;-96
2022/10/23 06:00:16;;;;;;;273.67;19.90;;;;;;;28.54;99.17;97228.22;6216723;23;20012;-96
2022/10/23 06:02:41;;;;;;;336.88;24.95;;;;;;;29.11;96.57;97240.03;6240922;23;20067;-96
2022/10/23 06:05:27;;;;;;;241.75;20.90;;;;;;;29.78;94.17;97236.22;6218378;23;20031;-96
2022/10/23 06:07:57;;;;;;;375.85;27.23;;;;;;;29.73;94.57;97219.78;6218390;23;20106;-96
2022/10/23 06:10:24;;;;;;;196.05;17.75;;;;;;;29.83;92.54;97225.81;6244096;23;20325;-95
2022/10/23 06:12:50;;;;;;;418.27;34.90;;;;;;;30.84;92.25;97225.13;6218666;23;20026;-96
2022/10/23 06:15:18;;;;;;;395.08;32.25;;;;;;;30.67;91.68;97216.34;6243780;23;20016;-96
2022/10/23 06:17:44;;;;;;;320.13;25.75;;;;;;;30.78;90.77;97219.44;6213489;23;20016;-96
2022/10/23 06:20:10;;;;;;;358.80;28.85;;;;;;;29.24;95.53;97234.16;6188497;23;20001;-96
2022/10/23 06:22:35;;;;;;;360.00;26.23;;;;;;;29.41;96.67;97226.91;6214205;23;20036;-95
2022/10/23 06:25:01;;;;;;;347.67;26.48;;;;;;;29.97;93.29;97221.59;6188794;23;20019;-96
2022/10/23 06:27:27;;;;;;;439.10;31.95;;;;;;;27.92;100.00;97220.50;6189228;23;20043;-95
2022/10/23 06:29:53;;;;;;;423.60;31.63;;;;;;;31.19;90.54;97220.13;6187465;23;20012;-95
2022/10/23 06:32:19;;;;;;;392.50;31.92;;;;;;;31.27;88.05;97218.19;6212927;23;20000;-95
2022/10/23 06:34:44;;;;;;;375.77;31.17;;;;;;;30.75;89.84;97216.28;6185555;23;20019;-95
2022/10/23 06:37:10;;;;;;;379.42;30.90;;;;;;;30.20;90.29;97220.78;6185220;23;20009;-96
2022/10/23 06:39:35;;;;;;;426.63;35.42;;;;;;;29.25;94.92;97236.69;6185385;23;20013;-95
2022/10/23 06:42:02;;;;;;;467.75;37.35;;;;;;;29.92;93.42;97245.47;6187212;23;20004;-95
2022/10/23 06:44:27;;;;;;;433.98;37.33;;;;;;;30.27;92.01;97229.81;6187014;23;20001;-95
2022/10/23 06:46:52;;;;;;;412.88;34.85;;;;;;;31.18;88.88;97234.59;6185538;23;20012;-96
2022/10/23 06:49:24;;;;;;;459.23;40.92;;;;;;;30.96;90.10;97237.97;6186311;23;20005;-96
2022/10/23 06:51:49;;;;;;;417.98;37.58;;;;;;;30.80;88.63;97222.78;6185728;23;20012;-96
2022/10/23 06:54:15;;;;;;;427.42;34.28;;;;;;;28.83;95.43;97240.38;6185361;23;20444;-95
2022/10/23 06:56:40;;;;;;;459.90;36.25;;;;;;;30.70;90.31;97234.81;6185576;23;20024;-96
2022/10/23 06:59:06;;;;;;;406.42;37.08;;;;;;;30.34;91.68;97238.03;6187309;23;20009;-95
2022/10/23 07:01:32;;;;;;;388.15;30.27;;;;;;;29.68;91.94;97228.38;6210891;23;20005;-96
2022/10/23 07:03:57;;;;;;;369.50;27.42;;;;;;;31.09;90.26;97220.41;6187110;23;20091;-95
2022/10/23 07:06:23;;;;;;;364.15;29.33;;;;;;;31.10;87.78;97212.13;6186684;23;20092;-95
2022/10/23 07:08:48;;;;;;;260.13;22.40;;;;;;;29.51;93.37;97226.75;6186953;23;20051;-96
2022/10/23 07:11:14;;;;;;;367.27;30.13;;;;;;;29.76;92.27;97235.59;6211229;23;20100;-96
2022/10/23 07:13:39;;;;;;;303.05;23.35;;;;;;;27.39;100.00;97217.03;6185531;23;20004;-95
2022/10/23 07:16:11;;;;;;;319.42;25.65;;;;;;;27.01;100.00;97200.38;6213612;23;20017;-95
2022/10/23 07:18:36;;;;;;;133.55;12.70;;;;;;;27.11;100.00;97214.50;6209739;23;20075;-95
2022/10/23 07:21:02;;;;;;;75.78;10.75;;;;;;;28.01;100.00;97198.13;6214446;23;20031;-95
2022/10/23 07:23:27;;;;;;;134.32;13.48;;;;;;;27.31;100.00;97196.41;6239839;23;20020;-95
2022/10/23 07:25:54;;;;;;;123.13;13.57;;;;;;;26.38;100.00;97204.81;6214927;23;20004;-96
2022/10/23 07:28:19;;;;;;;60.83;10.82;;;;;;;27.81;100.00;97210.91;6240786;23;20074;-95
2022/10/23 07:30:56;;;;;;;88.30;10.90;;;;;;;28.24;100.00;97219.81;6212811;23;20434;-94
2022/10/23 07:33:21;;;;;;;51.55;7.80;;;;;;;27.98;100.00;97224.38;6212220;23;20008;-94
2022/10/23 07:35:48;;;;;;;50.38;6.78;;;;;;;26.48;100.00;97208.25;6239651;23;20523;-94
2022/10/23 07:38:14;;;;;;;46.50;5.80;;;;;;;25.92;100.00;97202.13;6239637;23;20008;-94
2022/10/23 07:40:39;;;;;;;12.43;3.60;;;;;;;24.76;100.00;97181.00;6210198;23;20012;-93
2022/10/23 07:43:05;;;;;;;9.57;3.30;;;;;;;26.96;100.00;97165.22;6209123;23;20086;-93
2022/10/23 07:45:30;;;;;;;11.00;3.30;;;;;;;27.52;100.00;97165.75;6208537;23;20000;-93
2022/10/23 07:47:56;;;;;;;10.00;3.10;;;;;;;27.17;100.00;97163.03;6207981;23;20017;-92
2022/10/23 07:50:22;;;;;;;9.32;3.35;;;;;;;25.37;100.00;97157.56;6236535;23;20008;-93
2022/10/23 07:52:47;;;;;;;10.95;3.25;;;;;;;26.18;100.00;97151.53;6207913;23;20107;-93
2022/10/23 07:55:15;;;;;;;14.45;4.18;;;;;;;27.64;100.00;97142.19;6236793;23;20004;-93
2022/10/23 07:57:41;;;;;;;278.38;24.65;;;;;;;26.74;100.00;97140.69;6236148;23;20016;-93
2022/10/23 08:00:08;;;;;;;104.80;10.25;;;;;;;26.40;100.00;97133.34;6238237;23;20378;-93
2022/10/23 08:02:35;;;;;;;29.10;5.57;;;;;;;26.08;100.00;97128.53;6237410;23;20024;-93
2022/10/23 08:05:00;;;;;;;12.85;4.65;;;;;;;27.75;100.00;97115.97;6211752;23;20000;-93
2022/10/23 08:07:26;;;;;;;13.80;5.50;;;;;;;27.73;100.00;97114.44;6211552;23;20012;-93
2022/10/23 08:09:51;;;;;;;16.23;5.97;;;;;;;27.29;100.00;97115.41;6239425;23;20373;-93
2022/10/23 08:12:17;;;;;;;15.60;5.90;;;;;;;27.31;100.00;97117.91;6238767;23;20007;-93
2022/10/23 08:14:42;;;;;;;16.15;5.97;;;;;;;27.14;100.00;97117.88;6210940;23;20015;-94
2022/10/23 08:17:08;;;;;;;25.02;6.78;;;;;;;27.05;100.00;97114.28;6236584;23;20089;-93
2022/10/23 08:19:37;;;;;;;24.08;6.75;;;;;;;26.73;100.00;97114.91;6236503;23;20405;-92
2022/10/23 08:22:03;;;;;;;47.35;7.13;;;;;;;27.54;100.00;97121.78;6211168;23;20000;-93
2022/10/23 08:24:29;;;;;;;50.55;8.40;;;;;;;26.75;100.00;97112.94;6210975;23;20332;-93
2022/10/23 08:26:54;;;;;;;87.40;10.65;;;;;;;25.79;100.00;97116.19;6238815;23;20008;-93
2022/10/23 08:29:21;;;;;;;211.85;16.58;;;;;;;26.35;100.00;97112.44;6238280;23;20022;-93
2022/10/23 08:31:52;;;;;;;279.92;21.27;;;;;;;26.69;100.00;97105.50;6238177;23;20734;-92
2022/10/23 08:34:19;;;;;;;327.35;23.35;;;;;;;26.16;100.00;97108.06;6236017;23;20008;-94
2022/10/23 08:36:45;;;;;;;296.17;22.38;;;;;;;26.02;100.00;97104.09;6237964;23;20004;-92
2022/10/23 08:39:10;;;;;;;332.10;25.95;;;;;;;26.87;100.00;97092.13;6238277;23;20000;-93
2022/10/23 08:41:41;;;;;;;264.33;19.20;;;;;;;25.53;100.00;97099.03;6237834;23;20022;-93
2022/10/23 08:44:09;;;;;;;113.22;12.73;;;;;;;25.94;100.00;97106.66;6210996;23;20091;-93
2022/10/23 08:46:43;;;;;;;400.17;27.38;;;;;;;26.08;100.00;97099.16;6238136;23;20008;-93
2022/10/23 08:49:39;;;;;;;393.40;28.33;;;;;;;26.34;100.00;97104.56;6211903;23;20004;-93
2022/10/23 08:52:29;;;;;;;244.73;20.85;;;;;;;26.21;100.00;97097.78;6237662;23;20004;-93
2022/10/23 08:55:14;;;;;;;257.55;20.25;;;;;;;25.33;100.00;97081.44;6237967;23;20107;-91
2022/10/23 08:57:56;;;;;;;227.48;19.20;;;;;;;24.95;100.00;97096.59;6210174;23;20038;-91
2022/10/23 09:00:22;;;;;;;279.95;18.85;;;;;;;24.31;100.00;97089.09;6211466;23;20008;-95
2022/10/23 09:02:51;;;;;;;242.05;17.98;;;;;;;24.94;100.00;97077.09;6210737;23;20004;-93
2022/10/23 09:05:55;;;;;;;162.43;14.02;;;;;;;25.69;100.00;97078.84;6207568;23;20012;-93
2022/10/23 09:08:55;;;;;;;57.28;7.35;;;;;;;24.36;100.00;97070.06;6160709;23;20014;-92
2022/10/23 09:11:41;;;;;;;120.00;10.27;;;;;;;23.52;100.00;97060.72;6235475;23;20000;-93
2022/10/23 09:14:26;;;;;;;222.07;14.60;;;;;;;25.26;100.00;97051.84;6234052;23;20008;-91
2022/10/23 09:17:27;;;;;;;215.68;14.98;;;;;;;26.70;100.00;97045.72;6207067;23;20098;-93
2022/10/23 09:20:23;;;;;;;77.57;8.43;;;;;;;25.75;100.00;97043.56;6205211;23;20000;-92
2022/10/23 09:23:03;;;;;;;80.05;8.00;;;;;;;26.08;100.00;97035.88;6206405;23;20086;-94
2022/10/23 09:25:33;;;;;;;53.33;8.00;;;;;;;25.83;100.00;97030.28;6208547;23;20066;-92
2022/10/23 09:28:01;;;;;;;200.13;15.52;;;;;;;26.52;100.00;97017.16;6234680;23;20014;-92
2022/10/23 09:30:31;;;;;;;166.93;13.88;;;;;;;26.06;100.00;97013.81;6235736;23;20016;-92
2022/10/23 09:32:57;;;;;;;56.55;8.32;;;;;;;24.95;100.00;97013.94;6232338;23;20023;-93
2022/10/23 09:35:25;;;;;;;132.85;11.73;;;;;;;25.67;100.00;97004.25;6207810;23;20062;-93
2022/10/23 09:37:52;;;;;;;18.42;5.15;;;;;;;26.32;100.00;97007.66;6233037;23;20014;-92
2022/10/23 09:40:28;;;;;;;18.90;5.35;;;;;;;26.37;100.00;96998.19;6207720;23;20452;-92
2022/10/23 09:42:55;;;;;;;42.40;6.55;;;;;;;25.69;100.00;96999.63;6207597;23;20012;-92
2022/10/23 09:45:23;;;;;;;43.47;6.85;;;;;;;25.11;100.00;96991.94;6208176;23;20087;-91
2022/10/23 09:47:49;;;;;;;42.67;6.22;;;;;;;25.59;100.00;96995.34;6206922;23;20004;-92
2022/10/23 09:50:20;;;;;;;14.63;5.00;;;;;;;25.02;100.00;96980.34;6234849;23;20876;-92
2022/10/23 09:52:50;;;;;;;9.60;3.70;;;;;;;24.93;100.00;96975.91;6206490;23;20011;-92
2022/10/23 09:55:23;;;;;;;13.20;4.15;;;;;;;25.19;100.00;96965.38;6207441;23;20019;-92
2022/10/23 09:57:49;;;;;;;;;;;;;;;25.20;100.00;96953.72;6208919;23;20016;-92
2022/10/23 10:00:19;;;;;;;9.25;3.85;;;;;;;24.67;100.00;96953.44;6234216;23;19907;-92
2022/10/23 10:03:21;;;;;;;8.60;3.35;;;;;;;25.42;100.00;96949.81;6207923;23;20087;-92
2022/10/23 10:05:58;;;;;;;9.57;3.40;;;;;;;24.48;100.00;96951.66;6212148;23;20604;-93
2022/10/23 10:08:33;;;;;;;8.20;2.40;;;;;;;24.24;100.00;96946.81;6235950;23;20008;-93
2022/10/23 10:11:01;;;;;;;7.50;2.30;;;;;;;24.67;100.00;96926.78;6233781;23;20031;-94
2022/10/23 10:13:35;;;;;;;8.45;2.20;;;;;;;24.87;100.00;96926.66;6209032;23;20024;-94
2022/10/23 10:16:22;;;;;;;6.45;1.88;;;;;;;26.29;100.00;96917.97;6234560;23;20031;-94
2022/10/23 10:19:10;;;;;;;13.10;2.40;;;;;;;25.58;100.00;96898.41;6234133;23;20022;-93
2022/10/23 10:21:47;;;;;;;7.45;1.48;;;;;;;26.11;100.00;96904.66;6207223;23;20008;-94
2022/10/23 10:24:22;;;;;;;5.80;1.60;;;;;;;25.66;100.00;96900.31;6207715;23;20004;-93
2022/10/23 10:27:23;;;;;;;8.63;1.17;;;;;;;25.63;100.00;96897.94;6233133;23;20004;-93
2022/10/23 10:30:00;;;;;;;5.03;1.30;;;;;;;25.16;100.00;96899.84;6234094;23;20008;-95
2022/10/23 10:32:53;;;;;;;5.60;1.05;;;;;;;25.44;100.00;96874.94;6235377;23;20016;-92
2022/10/23 10:35:25;;;;;;;4.88;1.30;;;;;;;24.33;100.00;96879.34;6235335;23;20079;-93
2022/10/23 10:38:12;;;;;;;4.40;1.00;;;;;;;25.91;100.00;96887.97;6236132;23;20012;-92
2022/10/23 10:40:46;;;;;;;3.50;0.90;;;;;;;26.13;100.00;96881.28;6209710;23;20365;-92
2022/10/23 10:43:26;;;;;;;4.80;1.20;;;;;;;25.67;100.00;96888.63;6237614;23;20004;-93
2022/10/23 10:46:24;;;;;;;5.40;1.08;;;;;;;25.45;100.00;96881.94;6236739;23;20106;-91
2022/10/23 10:49:01;;;;;;;4.90;1.42;;;;;;;25.08;100.00;96875.75;6211081;23;20016;-93
2022/10/23 10:51:33;;;;;;;9.23;1.60;;;;;;;25.28;100.00;96870.25;6238017;23;20091;-92
2022/10/23 10:54:07;;;;;;;5.53;1.60;;;;;;;25.54;100.00;96870.34;6237737;23;20012;-93
2022/10/23 10:56:36;;;;;;;5.90;1.95;;;;;;;25.85;100.00;96870.75;6236747;23;20008;-93
2022/10/23 10:59:11;;;;;;;6.93;2.30;;;;;;;24.84;100.00;96869.19;6211797;23;20008;-93
2022/10/23 11:01:58;;;;;;;7.10;2.53;;;;;;;26.18;100.00;96857.63;6211871;23;20016;-93
2022/10/23 11:04:42;;;;;;;6.93;2.40;;;;;;;26.23;100.00;96846.44;6238058;23;20012;-94
2022/10/23 11:07:13;;;;;;;6.80;2.58;;;;;;;25.59;100.00;96851.19;6211892;23;20430;-93
2022/10/23 11:09:41;;;;;;;10.20;2.90;;;;;;;25.83;100.00;96843.38;6237146;23;20004;-93
2022/10/23 11:12:25;;;;;;;7.65;2.78;;;;;;;25.23;100.00;96841.34;6237626;23;20011;-94
2022/10/23 11:14:50;;;;;;;7.07;2.83;;;;;;;26.35;100.00;96839.00;6236455;23;20008;-93
2022/10/23 11:17:24;;;;;;;10.57;3.45;;;;;;;26.10;100.00;96825.50;6238581;23;20023;-93
2022/10/23 11:20:08;;;;;;;8.88;3.25;;;;;;;26.64;100.00;96825.22;6211021;23;20015;-93
2022/10/23 11:22:57;;;;;;;7.95;3.50;;;;;;;27.60;100.00;96820.38;6211283;23;20549;-94
2022/10/23 11:25:57;;;;;;;10.68;3.60;;;;;;;26.44;100.00;96810.47;6238319;23;20429;-93
2022/10/23 11:29:11;;;;;;;8.98;4.38;;;;;;;27.30;100.00;96795.09;6238601;23;20007;-93
2022/10/23 11:31:46;;;;;;;;;;;;;;;26.39;100.00;96794.91;6144324;23;20367;-92
2022/10/23 11:34:50;;;;;;;10.13;4.70;;;;;;;26.71;100.00;96783.50;6210790;23;19919;-93
2022/10/23 11:37:21;;;;;;;11.70;6.05;;;;;;;26.76;100.00;96787.50;6211842;23;20027;-90
2022/10/23 11:40:21;;;;;;;13.18;5.93;;;;;;;27.07;100.00;96783.22;6238189;23;20012;-90
2022/10/23 11:42:49;;;;;;;13.50;7.10;;;;;;;27.04;100.00;96778.19;6212567;23;20019;-91
2022/10/23 11:45:36;;;;;;;12.15;6.82;;;;;;;25.91;100.00;96767.78;6238409;23;20007;-91
2022/10/23 11:48:41;;;;;;;11.55;6.32;;;;;;;27.29;100.00;96758.63;6210674;23;20739;-93
2022/10/23 11:51:27;;;;;;;12.13;5.50;;;;;;;28.07;100.00;96739.25;6113336;23;20113;-92